createdAt,value
2019-05-09T00:00:14.241Z,0
2019-05-09T00:00:54.249Z,0
2019-05-09T00:01:34.624Z,0
2019-05-09T00:02:15.033Z,0
2019-05-09T00:02:55.387Z,0
2019-05-09T00:03:35.773Z,0
2019-05-09T00:07:41.101Z,0
2019-05-09T00:08:23.057Z,0
2019-05-09T00:09:03.707Z,0
2019-05-09T00:12:38.413Z,0
2019-05-09T00:13:18.443Z,0
2019-05-09T00:14:00.685Z,0
2019-05-09T00:14:43.321Z,0
2019-05-09T00:15:26.348Z,0
2019-05-09T00:18:07.935Z,0
2019-05-09T00:18:54.232Z,0
2019-05-09T00:23:37.986Z,0
2019-05-09T00:24:18.525Z,0
2019-05-09T00:24:58.901Z,0
2019-05-09T00:25:43.261Z,0
2019-05-09T00:29:09.258Z,0
2019-05-09T00:29:50.042Z,0
2019-05-09T00:30:34.605Z,0
2019-05-09T00:33:57.735Z,0
2019-05-09T00:34:37.826Z,0
2019-05-09T00:35:18.291Z,0
2019-05-09T00:35:58.685Z,0
2019-05-09T00:36:43.233Z,0
2019-05-09T00:37:23.832Z,0
2019-05-09T00:43:27.830Z,0
2019-05-09T00:44:08.225Z,0
2019-05-09T00:44:49.341Z,0
2019-05-09T00:45:35.505Z,0
2019-05-09T00:46:58.617Z,0
2019-05-09T00:47:39.506Z,0
2019-05-09T00:48:19.968Z,0
2019-05-09T00:49:01.570Z,0
2019-05-09T00:49:43.550Z,0
2019-05-09T00:51:18.360Z,0
2019-05-09T01:01:46.696Z,0
2019-05-09T01:02:26.329Z,0
2019-05-09T01:03:06.836Z,0
2019-05-09T01:03:47.553Z,0
2019-05-09T01:05:54.239Z,0
2019-05-09T01:06:34.257Z,0
2019-05-09T01:07:14.666Z,0
2019-05-09T01:07:55.512Z,0
2019-05-09T01:08:36.350Z,0
2019-05-09T01:09:18.790Z,0
2019-05-09T01:13:23.313Z,0
2019-05-09T01:14:04.222Z,0
2019-05-09T01:14:45.098Z,0
2019-05-09T01:15:25.281Z,0
2019-05-09T01:16:06.051Z,0
2019-05-09T01:16:46.601Z,0
2019-05-09T01:20:11.996Z,0
2019-05-09T01:20:53.184Z,0
2019-05-09T01:21:34.190Z,0
2019-05-09T01:22:14.285Z,0
2019-05-09T01:22:54.692Z,0
2019-05-09T01:23:35.141Z,0
2019-05-09T01:24:55.906Z,0
2019-05-09T01:25:36.279Z,0
2019-05-09T01:26:16.713Z,0
2019-05-09T01:27:43.127Z,0
2019-05-09T01:28:23.552Z,0
2019-05-09T01:29:04.455Z,0
2019-05-09T01:29:44.355Z,0
2019-05-09T01:30:26.668Z,0
2019-05-09T01:31:57.030Z,0
2019-05-09T01:32:43.608Z,0
2019-05-09T01:33:28.540Z,0
2019-05-09T01:34:19.319Z,0
2019-05-09T01:39:53.895Z,0
2019-05-09T01:40:45.190Z,0
2019-05-09T01:41:34.059Z,0
2019-05-09T01:42:23.285Z,0
2019-05-09T01:43:14.036Z,0
2019-05-09T01:44:04.059Z,0
2019-05-09T01:44:53.294Z,0
2019-05-09T01:45:50.365Z,0
2019-05-09T01:46:40.893Z,0
2019-05-09T01:47:34.190Z,0
2019-05-09T01:51:47.447Z,0
2019-05-09T01:52:35.809Z,0
2019-05-09T01:53:26.141Z,0
2019-05-09T01:54:15.933Z,0
2019-05-09T01:55:07.419Z,0
2019-05-09T01:57:04.749Z,0
2019-05-09T01:57:47.752Z,0
2019-05-09T01:58:25.461Z,0
2019-05-09T01:59:05.825Z,0
2019-05-09T01:59:46.368Z,0
2019-05-09T02:00:29.094Z,0
2019-05-09T02:01:09.410Z,0
2019-05-09T02:03:55.337Z,0
2019-05-09T02:04:35.889Z,0
2019-05-09T02:05:16.252Z,0
2019-05-09T02:05:57.703Z,0
2019-05-09T02:06:38.100Z,0
2019-05-09T02:07:18.515Z,0
2019-05-09T02:07:59.488Z,0
2019-05-09T02:12:40.380Z,0
2019-05-09T02:13:34.279Z,0
2019-05-09T02:14:24.853Z,0
2019-05-09T02:17:23.311Z,0
2019-05-09T02:18:15.811Z,0
2019-05-09T02:19:13.569Z,0
2019-05-09T02:20:05.174Z,0
2019-05-09T02:20:53.254Z,0
2019-05-09T02:21:43.682Z,0
2019-05-09T02:22:34.430Z,0
2019-05-09T02:23:25.653Z,0
2019-05-09T02:24:14.024Z,0
2019-05-09T02:25:07.429Z,0
2019-05-09T02:25:58.149Z,0
2019-05-09T02:26:48.842Z,0
2019-05-09T02:27:38.011Z,0
2019-05-09T02:30:35.959Z,0
2019-05-09T02:31:24.743Z,0
2019-05-09T02:32:14.264Z,0
2019-05-09T02:33:05.044Z,0
2019-05-09T02:35:18.867Z,0
2019-05-09T02:36:01.749Z,0
2019-05-09T02:36:38.840Z,0
2019-05-09T02:37:19.167Z,0
2019-05-09T02:37:59.587Z,0
2019-05-09T02:38:42.077Z,0
2019-05-09T02:39:22.965Z,0
2019-05-09T02:40:03.444Z,0
2019-05-09T02:40:43.790Z,0
2019-05-09T02:47:29.149Z,0
2019-05-09T02:48:09.939Z,0
2019-05-09T02:48:50.979Z,0
2019-05-09T02:49:38.753Z,0
2019-05-09T02:51:39.918Z,0
2019-05-09T02:52:19.698Z,0
2019-05-09T02:53:08.183Z,0
2019-05-09T02:54:29.889Z,0
2019-05-09T02:55:10.286Z,0
2019-05-09T02:55:49.860Z,0
2019-05-09T02:56:30.890Z,0
2019-05-09T02:57:13.447Z,0
2019-05-09T02:58:02.524Z,0
2019-05-09T02:58:44.179Z,0
2019-05-09T02:59:37.992Z,0
2019-05-09T03:02:59.499Z,0
2019-05-09T03:03:40.315Z,0
2019-05-09T03:08:29.766Z,0
2019-05-09T03:09:09.839Z,0
2019-05-09T03:09:50.007Z,0
2019-05-09T03:10:30.673Z,0
2019-05-09T03:11:11.084Z,0
2019-05-09T03:11:51.588Z,0
2019-05-09T03:12:35.674Z,0
2019-05-09T03:13:12.506Z,0
2019-05-09T03:13:52.749Z,0
2019-05-09T03:14:33.190Z,0
2019-05-09T03:15:22.433Z,0
2019-05-09T03:16:04.766Z,0
2019-05-09T03:18:09.131Z,0
2019-05-09T03:18:49.497Z,0
2019-05-09T03:19:29.990Z,0
2019-05-09T03:20:10.256Z,0
2019-05-09T03:20:50.731Z,0
2019-05-09T03:21:32.046Z,0
2019-05-09T03:22:12.342Z,0
2019-05-09T03:22:52.960Z,0
2019-05-09T03:23:33.340Z,0
2019-05-09T03:24:14.217Z,0
2019-05-09T03:32:48.951Z,0
2019-05-09T03:33:29.083Z,0
2019-05-09T03:34:09.298Z,0
2019-05-09T03:34:48.919Z,4
2019-05-09T03:38:57.619Z,4
2019-05-09T03:39:37.916Z,4
2019-05-09T03:40:22.925Z,4
2019-05-09T03:42:37.876Z,4
2019-05-09T03:43:07.910Z,4
2019-05-09T03:43:48.215Z,8
2019-05-09T03:44:28.189Z,4
2019-05-09T03:45:08.313Z,8
2019-05-09T03:45:51.288Z,8
2019-05-09T03:47:17.306Z,8
2019-05-09T03:47:58.098Z,8
2019-05-09T03:48:37.389Z,12
2019-05-09T03:49:17.941Z,8
2019-05-09T03:49:58.681Z,12
2019-05-09T03:50:38.357Z,16
2019-05-09T03:51:18.487Z,16
2019-05-09T03:51:59.729Z,12
2019-05-09T03:58:07.414Z,20
2019-05-09T03:58:47.443Z,24
2019-05-09T03:59:27.836Z,20
2019-05-09T04:00:07.721Z,24
2019-05-09T04:01:29.483Z,28
2019-05-09T04:02:10.355Z,24
2019-05-09T04:02:50.775Z,28
2019-05-09T04:17:51.940Z,132
2019-05-09T04:23:54.200Z,380
2019-05-09T04:24:39.023Z,336
2019-05-09T04:25:23.740Z,216
2019-05-09T04:26:04.425Z,208
2019-05-09T04:26:48.373Z,204
2019-05-09T04:27:29.525Z,208
2019-05-09T05:08:55.323Z,5268
2019-05-09T05:09:38.135Z,5172
2019-05-09T05:10:19.434Z,4616
2019-05-09T05:11:03.264Z,9788
2019-05-09T05:12:29.028Z,6592
2019-05-09T05:13:23.016Z,3732
2019-05-09T05:17:17.653Z,13600
2019-05-09T05:17:58.312Z,10848
2019-05-09T05:18:38.367Z,12216
2019-05-09T05:19:19.630Z,13440
2019-05-09T05:20:00.618Z,8132
2019-05-09T05:21:28.601Z,12300
2019-05-09T05:22:19.561Z,19072
2019-05-09T05:24:27.808Z,22944
2019-05-09T05:25:12.913Z,14112
2019-05-09T05:25:57.964Z,15488
2019-05-09T05:26:38.021Z,11900
2019-05-09T05:27:18.791Z,5720
2019-05-09T05:28:02.144Z,9172
2019-05-09T05:30:10.184Z,17408
2019-05-09T05:32:57.839Z,27200
2019-05-09T05:33:38.215Z,28256
2019-05-09T05:34:22.341Z,22368
2019-05-09T05:35:49.925Z,29888
2019-05-09T05:50:08.342Z,33568
2019-05-09T05:50:49.165Z,32704
2019-05-09T05:51:29.839Z,29696
2019-05-09T05:52:12.951Z,27168
2019-05-09T05:52:57.526Z,29216
2019-05-09T05:53:38.925Z,32448
2019-05-09T05:55:45.255Z,33824
2019-05-09T05:56:29.648Z,32416
2019-05-09T05:57:13.110Z,26752
2019-05-09T05:57:57.849Z,19008
2019-05-09T05:58:39.346Z,22144
2019-05-09T05:59:28.537Z,17184
2019-05-09T06:00:12.891Z,17376
2019-05-09T06:00:58.826Z,39104
2019-05-09T06:01:38.356Z,38848
2019-05-09T06:02:20.577Z,38656
2019-05-09T06:03:09.244Z,37792
2019-05-09T06:03:50.143Z,37632
2019-05-09T06:05:20.241Z,38560
2019-05-09T06:06:47.980Z,36224
2019-05-09T06:07:29.214Z,25696
2019-05-09T06:13:28.065Z,35232
2019-05-09T06:14:11.702Z,36512
2019-05-09T06:14:50.204Z,35392
2019-05-09T06:15:32.412Z,34560
2019-05-09T06:16:14.982Z,32192
2019-05-09T06:16:55.253Z,35776
2019-05-09T06:17:37.671Z,39584
2019-05-09T06:18:18.334Z,39872
2019-05-09T06:18:59.907Z,41056
2019-05-09T06:20:27.863Z,42144
2019-05-09T06:24:17.674Z,47360
2019-05-09T06:24:59.679Z,49152
2019-05-09T06:25:44.546Z,49824
2019-05-09T06:26:25.004Z,49760
2019-05-09T06:27:09.962Z,50432
2019-05-09T06:27:51.114Z,51808
2019-05-09T06:29:17.869Z,55360
2019-05-09T06:29:58.336Z,56096
2019-05-09T06:32:44.136Z,45760
2019-05-09T06:33:24.725Z,40704
2019-05-09T06:34:08.300Z,38272
2019-05-09T06:36:13.450Z,37120
2019-05-09T06:36:58.636Z,34400
2019-05-09T06:37:42.119Z,26496
2019-05-09T06:38:33.825Z,23168
2019-05-09T06:39:17.825Z,25536
2019-05-09T06:40:43.624Z,28704
2019-05-09T06:41:24.114Z,30496
2019-05-09T06:42:05.437Z,30144
2019-05-09T06:42:49.098Z,33472
2019-05-09T06:44:20.756Z,14884
2019-05-09T06:45:45.471Z,6504
2019-05-09T06:46:27.711Z,6140
2019-05-09T06:47:08.230Z,6056
2019-05-09T06:49:27.059Z,30432
2019-05-09T06:50:43.989Z,34432
2019-05-09T06:51:24.746Z,37920
2019-05-09T06:52:05.603Z,37408
2019-05-09T06:52:47.930Z,44704
2019-05-09T06:53:34.221Z,42784
2019-05-09T06:54:21.408Z,39616
2019-05-09T06:57:12.153Z,26880
2019-05-09T06:57:58.007Z,13372
2019-05-09T06:58:38.294Z,13284
2019-05-09T06:59:19.342Z,15412
2019-05-09T07:00:43.439Z,8556
2019-05-09T07:01:24.411Z,6888
2019-05-09T07:02:04.774Z,4528
2019-05-09T07:02:47.957Z,3716
2019-05-09T07:04:54.167Z,3208
2019-05-09T07:06:17.752Z,2108
2019-05-09T07:09:08.341Z,1416
2019-05-09T07:09:47.887Z,1552
2019-05-09T07:10:31.558Z,1968
2019-05-09T07:11:16.644Z,2732
2019-05-09T07:13:22.106Z,6548
2019-05-09T07:14:02.696Z,5804
2019-05-09T07:14:44.726Z,6484
2019-05-09T07:15:28.278Z,4008
2019-05-09T07:16:09.225Z,3420
2019-05-09T07:16:49.561Z,3428
2019-05-09T07:17:32.207Z,4096
2019-05-09T07:18:14.379Z,4892
2019-05-09T07:20:23.811Z,5436
2019-05-09T07:22:34.314Z,9184
2019-05-09T07:23:59.441Z,8528
2019-05-09T07:24:48.049Z,3372
2019-05-09T07:25:32.280Z,6444
2019-05-09T07:26:23.483Z,4380
2019-05-09T07:27:09.218Z,4780
2019-05-09T07:27:50.508Z,4224
2019-05-09T07:28:34.261Z,3188
2019-05-09T07:30:40.036Z,2164
2019-05-09T07:31:20.486Z,1600
2019-05-09T07:32:02.954Z,1396
2019-05-09T07:32:48.877Z,1604
2019-05-09T07:33:29.403Z,1720
2019-05-09T07:34:14.579Z,2336
2019-05-09T07:34:58.632Z,2328
2019-05-09T07:35:39.602Z,2156
2019-05-09T07:36:22.280Z,1856
2019-05-09T07:37:02.748Z,1528
2019-05-09T07:37:43.275Z,1436
2019-05-09T07:39:11.967Z,1580
2019-05-09T07:40:43.483Z,1240
2019-05-09T07:42:49.502Z,1184
2019-05-09T07:43:39.848Z,1156
2019-05-09T07:44:21.371Z,1112
2019-05-09T07:45:09.108Z,1076
2019-05-09T07:45:49.258Z,1064
2019-05-09T07:46:32.335Z,1060
2019-05-09T07:47:12.716Z,1084
2019-05-09T07:47:53.369Z,1028
2019-05-09T07:49:25.496Z,808
2019-05-09T07:50:08.855Z,852
2019-05-09T07:50:52.975Z,932
2019-05-09T07:52:24.402Z,944
2019-05-09T07:53:08.878Z,1132
2019-05-09T07:53:53.621Z,1284
2019-05-09T07:54:41.683Z,1348
2019-05-09T07:55:27.172Z,1376
2019-05-09T07:56:15.549Z,1400
2019-05-09T07:57:00.000Z,1552
2019-05-09T07:57:47.266Z,1624
2019-05-09T07:59:14.969Z,1636
2019-05-09T08:00:00.415Z,1616
2019-05-09T08:00:43.496Z,1604
2019-05-09T08:02:51.965Z,1508
2019-05-09T08:03:41.384Z,1532
2019-05-09T08:07:12.438Z,1608
2019-05-09T08:19:49.978Z,3880
2019-05-09T08:20:30.746Z,3748
2019-05-09T08:21:13.335Z,3456
2019-05-09T08:21:59.048Z,3304
2019-05-09T08:22:49.474Z,3204
2019-05-09T08:23:24.355Z,3248
2019-05-09T08:24:08.047Z,3432
2019-05-09T08:27:41.758Z,4848
2019-05-09T08:28:24.256Z,4580
2019-05-09T08:29:09.414Z,4972
2019-05-09T08:31:15.199Z,5368
2019-05-09T08:32:59.527Z,4760
2019-05-09T08:33:43.487Z,4180
2019-05-09T08:34:28.203Z,4604
2019-05-09T08:35:11.572Z,3812
2019-05-09T08:35:54.120Z,3132
2019-05-09T08:36:38.510Z,3100
2019-05-09T08:37:22.593Z,3156
2019-05-09T08:38:20.945Z,3340
2019-05-09T08:41:09.252Z,3256
2019-05-09T08:41:50.866Z,3228
2019-05-09T08:44:15.102Z,2692
2019-05-09T08:44:57.750Z,2720
2019-05-09T08:45:38.212Z,2968
2019-05-09T08:46:18.333Z,3048
2019-05-09T08:47:40.837Z,2496
2019-05-09T08:48:23.308Z,2696
2019-05-09T08:49:03.996Z,2852
2019-05-09T08:50:30.088Z,2768
2019-05-09T08:51:12.314Z,2760
2019-05-09T08:52:09.823Z,2640
2019-05-09T08:52:41.043Z,2528
2019-05-09T08:53:23.353Z,2412
2019-05-09T08:54:06.551Z,2380
2019-05-09T08:54:53.727Z,2668
2019-05-09T08:56:59.341Z,2472
2019-05-09T08:57:39.849Z,2528
2019-05-09T08:58:21.293Z,2408
2019-05-09T08:59:03.327Z,2216
2019-05-09T08:59:47.138Z,2416
2019-05-09T09:01:12.276Z,2488
2019-05-09T09:02:43.753Z,2020
2019-05-09T09:03:28.395Z,2192
2019-05-09T09:04:13.007Z,2160
2019-05-09T09:04:58.158Z,2132
2019-05-09T09:05:43.729Z,2064
2019-05-09T09:07:52.852Z,2276
2019-05-09T09:08:38.114Z,2228
2019-05-09T09:09:19.213Z,2096
2019-05-09T09:10:01.424Z,2160
2019-05-09T09:12:25.639Z,2048
2019-05-09T09:12:53.339Z,1972
2019-05-09T09:17:01.397Z,1408
2019-05-09T09:17:41.522Z,1396
2019-05-09T09:18:22.308Z,1388
2019-05-09T09:19:02.752Z,1428
2019-05-09T09:19:44.196Z,1480
2019-05-09T09:22:31.682Z,1136
2019-05-09T09:23:12.973Z,1060
2019-05-09T09:23:58.175Z,1092
2019-05-09T09:24:42.107Z,1204
2019-05-09T09:25:23.502Z,1260
2019-05-09T09:27:32.824Z,1040
2019-05-09T09:28:18.237Z,1052
2019-05-09T09:28:59.092Z,1112
2019-05-09T09:29:41.309Z,1176
2019-05-09T09:30:25.334Z,1128
2019-05-09T09:31:51.081Z,1152
2019-05-09T09:32:38.418Z,1360
2019-05-09T09:34:02.138Z,1412
2019-05-09T09:34:48.422Z,1300
2019-05-09T09:35:31.034Z,1300
2019-05-09T09:36:14.845Z,1300
2019-05-09T09:38:13.497Z,1212
2019-05-09T09:38:58.580Z,1224
2019-05-09T09:39:48.486Z,1212
2019-05-09T09:40:33.528Z,1212
2019-05-09T09:43:29.120Z,1200
2019-05-09T09:44:10.961Z,1256
2019-05-09T09:45:00.624Z,1292
2019-05-09T09:45:43.061Z,1280
2019-05-09T09:46:23.551Z,1316
2019-05-09T09:47:03.927Z,1360
2019-05-09T09:49:28.781Z,1488
2019-05-09T09:50:09.039Z,1600
2019-05-09T09:50:51.675Z,1768
2019-05-09T09:51:32.502Z,1796
2019-05-09T09:57:22.389Z,2228
2019-05-09T09:58:11.751Z,2400
2019-05-09T09:58:53.965Z,2508
2019-05-09T09:59:36.076Z,2504
2019-05-09T10:00:15.039Z,2296
2019-05-09T10:01:40.377Z,1940
2019-05-09T10:02:22.051Z,1824
2019-05-09T10:03:14.064Z,1764
2019-05-09T10:04:15.497Z,1744
2019-05-09T10:04:40.803Z,1752
2019-05-09T10:06:07.397Z,1500
2019-05-09T10:06:52.924Z,1444
2019-05-09T10:07:34.918Z,1520
2019-05-09T10:08:19.176Z,1540
2019-05-09T10:08:59.422Z,1772
2019-05-09T10:09:43.607Z,1896
2019-05-09T10:11:08.296Z,1928
2019-05-09T10:13:29.653Z,1560
2019-05-09T10:14:12.826Z,1600
2019-05-09T10:14:53.163Z,1480
2019-05-09T10:15:34.526Z,1304
2019-05-09T10:16:26.381Z,1324
2019-05-09T10:16:59.196Z,1360
2019-05-09T10:17:44.338Z,1452
2019-05-09T10:18:24.792Z,1492
2019-05-09T10:19:12.792Z,1516
2019-05-09T10:20:58.488Z,1300
2019-05-09T10:21:39.320Z,1212
2019-05-09T10:22:24.964Z,1196
2019-05-09T10:23:11.657Z,1260
2019-05-09T10:25:21.895Z,1140
2019-05-09T10:26:04.976Z,1280
2019-05-09T10:26:46.849Z,1280
2019-05-09T10:27:28.302Z,1216
2019-05-09T10:28:10.626Z,1260
2019-05-09T10:28:54.716Z,1300
2019-05-09T11:09:52.593Z,2880
2019-05-09T11:10:40.582Z,3072
2019-05-09T11:11:28.377Z,2864
2019-05-09T11:12:10.606Z,2756
2019-05-09T11:12:53.820Z,2660
2019-05-09T11:13:48.125Z,2716
2019-05-09T11:14:37.852Z,2932
2019-05-09T11:15:18.816Z,2432
2019-05-09T11:15:59.192Z,2432
2019-05-09T11:16:47.126Z,2948
2019-05-09T11:17:34.186Z,3280
2019-05-09T11:18:58.609Z,2876
2019-05-09T11:19:43.324Z,2792
2019-05-09T11:21:13.483Z,2648
2019-05-09T11:23:58.890Z,2256
2019-05-09T11:24:47.866Z,2252
2019-05-09T11:26:08.473Z,2452
2019-05-09T11:26:49.797Z,2512
2019-05-09T11:27:38.329Z,2544
2019-05-09T11:28:28.364Z,2572
2019-05-09T11:29:57.681Z,2588
2019-05-09T11:31:44.461Z,2772
2019-05-09T11:32:27.940Z,2756
2019-05-09T11:33:08.784Z,2824
2019-05-09T11:33:54.694Z,2832
2019-05-09T11:35:26.000Z,2792
2019-05-09T11:36:24.935Z,2764
2019-05-09T11:37:12.801Z,2760
2019-05-09T11:38:29.114Z,2796
2019-05-09T11:39:00.134Z,2792
2019-05-09T11:39:41.842Z,2816
2019-05-09T11:40:22.003Z,2908
2019-05-09T11:41:08.761Z,2948
2019-05-09T11:41:53.527Z,2876
2019-05-09T11:44:00.213Z,2988
2019-05-09T11:44:42.238Z,2900
2019-05-09T11:45:28.235Z,2884
2019-05-09T11:46:10.440Z,2900
2019-05-09T11:46:52.377Z,2676
2019-05-09T11:47:42.313Z,2704
2019-05-09T11:48:59.718Z,2540
2019-05-09T11:49:43.117Z,2460
2019-05-09T11:53:35.885Z,2308
2019-05-09T11:54:19.917Z,2336
2019-05-09T11:55:08.015Z,2352
2019-05-09T11:55:48.252Z,2416
2019-05-09T11:56:29.936Z,2408
2019-05-09T11:57:14.868Z,2524
2019-05-09T12:04:51.826Z,2720
2019-05-09T12:05:39.994Z,2732
2019-05-09T12:06:25.421Z,2772
2019-05-09T12:07:09.368Z,2832
2019-05-09T12:07:58.102Z,2872
2019-05-09T12:08:44.612Z,2924
2019-05-09T12:09:29.081Z,2968
2019-05-09T12:11:00.455Z,2944
2019-05-09T12:12:32.283Z,2784
2019-05-09T12:13:20.462Z,2756
2019-05-09T12:14:03.614Z,2800
2019-05-09T12:14:45.453Z,2812
2019-05-09T12:15:29.005Z,2772
2019-05-09T12:16:12.570Z,2788
2019-05-09T12:16:56.130Z,2808
2019-05-09T12:17:53.922Z,2844
2019-05-09T12:18:28.008Z,2848
2019-05-09T12:24:59.599Z,2708
2019-05-09T12:31:17.804Z,2500
2019-05-09T13:13:21.146Z,1668
2019-05-09T13:14:09.595Z,1640
2019-05-09T13:14:53.133Z,1636
2019-05-09T13:15:34.539Z,1636
2019-05-09T13:16:17.816Z,1640
2019-05-09T13:24:34.030Z,1576
2019-05-09T13:25:15.299Z,1544
2019-05-09T13:25:55.183Z,1516
2019-05-09T13:27:40.233Z,1392
2019-05-09T13:28:20.866Z,1340
2019-05-09T13:29:29.607Z,1272
2019-05-09T13:30:08.421Z,1236
2019-05-09T13:30:48.912Z,1220
2019-05-09T13:31:29.335Z,1216
2019-05-09T13:32:10.858Z,1212
2019-05-09T13:32:53.114Z,1212
2019-05-09T13:33:33.518Z,1212
2019-05-09T13:34:58.376Z,1180
2019-05-09T13:35:41.333Z,1156
2019-05-09T13:36:36.878Z,1124
2019-05-09T13:37:38.192Z,1092
2019-05-09T13:38:18.072Z,1092
2019-05-09T13:41:19.111Z,1076
2019-05-09T13:42:01.470Z,1080
2019-05-09T13:42:44.839Z,1116
2019-05-09T13:43:28.072Z,1148
2019-05-09T13:44:10.654Z,1160
2019-05-09T13:47:32.288Z,880
2019-05-09T13:48:26.315Z,836
2019-05-09T13:49:10.570Z,808
2019-05-09T13:49:42.345Z,804
2019-05-09T13:50:28.238Z,836
2019-05-09T13:54:30.132Z,1400
2019-05-09T13:55:10.725Z,1392
2019-05-09T13:55:51.409Z,1364
2019-05-09T13:56:31.798Z,1344
2019-05-09T13:57:12.183Z,1352
2019-05-09T13:57:52.598Z,1356
2019-05-09T13:58:33.772Z,1340
2019-05-09T14:02:00.091Z,1216
2019-05-09T14:02:44.944Z,1236
2019-05-09T14:03:31.154Z,1264
2019-05-09T14:04:12.090Z,1276
2019-05-09T14:04:54.089Z,1276
2019-05-09T14:05:34.199Z,1272
2019-05-09T14:09:00.106Z,1244
2019-05-09T14:09:43.376Z,1232
2019-05-09T14:10:28.965Z,1192
2019-05-09T14:11:50.693Z,1100
2019-05-09T14:12:31.394Z,1076
2019-05-09T14:13:13.870Z,1048
2019-05-09T14:13:52.339Z,1036
2019-05-09T14:14:33.548Z,1040
2019-05-09T14:15:13.993Z,1064
2019-05-09T14:15:54.362Z,1108
2019-05-09T14:16:34.845Z,1172
2019-05-09T14:20:04.108Z,1428
2019-05-09T14:20:45.003Z,1484
2019-05-09T14:21:29.714Z,1528
2019-05-09T14:22:50.503Z,1552
2019-05-09T14:23:36.222Z,1572
2019-05-09T14:24:19.110Z,1592
2019-05-09T14:25:01.757Z,1620
2019-05-09T14:25:48.273Z,1636
2019-05-09T14:28:30.718Z,1580
2019-05-09T14:29:13.007Z,1540
2019-05-09T14:29:52.132Z,1516
2019-05-09T14:30:32.909Z,1488
2019-05-09T14:31:55.869Z,1468
2019-05-09T14:33:23.153Z,1504
2019-05-09T14:34:09.814Z,1492
2019-05-09T14:34:50.515Z,1444
2019-05-09T14:35:32.439Z,1400
2019-05-09T14:36:58.550Z,1440
2019-05-09T14:40:22.860Z,1532
2019-05-09T14:41:03.378Z,1556
2019-05-09T14:41:46.898Z,1604
2019-05-09T14:42:24.315Z,1632
2019-05-09T14:43:04.924Z,1672
2019-05-09T14:48:30.036Z,2048
2019-05-09T14:49:10.538Z,2076
2019-05-09T14:49:51.092Z,2208
2019-05-09T14:50:33.138Z,2248
2019-05-09T14:51:13.688Z,2168
2019-05-09T14:51:54.144Z,2180
2019-05-09T14:52:40.042Z,2164
2019-05-09T14:53:20.015Z,2120
2019-05-09T14:54:00.728Z,2088
2019-05-09T14:54:42.102Z,2060
2019-05-09T14:55:22.488Z,2032
2019-05-09T14:56:03.072Z,2004
2019-05-09T14:56:44.927Z,1976
2019-05-09T15:04:49.406Z,1628
2019-05-09T15:05:37.842Z,1672
2019-05-09T15:06:18.177Z,1708
2019-05-09T15:06:57.900Z,1800
2019-05-09T15:07:38.851Z,1636
2019-05-09T15:09:02.182Z,1572
2019-05-09T15:09:42.323Z,1584
2019-05-09T15:10:22.924Z,1600
2019-05-09T15:11:03.438Z,1620
2019-05-09T15:11:43.807Z,1684
2019-05-09T15:12:24.253Z,1708
2019-05-09T15:13:07.578Z,1684
2019-05-09T15:14:34.562Z,1692
2019-05-09T15:15:15.778Z,1796
2019-05-09T15:15:57.839Z,1884
2019-05-09T15:21:21.659Z,1692
2019-05-09T15:22:02.043Z,1676
2019-05-09T15:22:42.973Z,1660
2019-05-09T15:23:24.182Z,1660
2019-05-09T15:24:09.117Z,1668
2019-05-09T15:26:52.504Z,1620
2019-05-09T15:28:11.654Z,1608
2019-05-09T15:28:52.770Z,1568
2019-05-09T15:29:34.153Z,1520
2019-05-09T15:30:18.454Z,1800
2019-05-09T15:30:59.016Z,1592
2019-05-09T15:31:52.501Z,1744
2019-05-09T15:37:11.236Z,1664
2019-05-09T15:37:51.597Z,1840
2019-05-09T15:38:34.440Z,1564
2019-05-09T15:39:18.315Z,1524
2019-05-09T15:41:50.898Z,1692
2019-05-09T15:42:58.899Z,1612
2019-05-09T15:43:38.696Z,1704
2019-05-09T15:44:19.099Z,1700
2019-05-09T15:44:59.582Z,1760
2019-05-09T15:45:41.367Z,1756
2019-05-09T15:46:22.705Z,1740
2019-05-09T15:47:03.093Z,1708
2019-05-09T15:47:54.991Z,1536
2019-05-09T15:57:34.775Z,1280
2019-05-09T15:58:17.995Z,1236
2019-05-09T15:59:08.554Z,1340
2019-05-09T15:59:49.074Z,1432
2019-05-09T16:00:38.589Z,1428
2019-05-09T16:01:18.927Z,1320
2019-05-09T16:02:09.069Z,1228
2019-05-09T16:04:17.673Z,1088
2019-05-09T16:04:59.949Z,1080
2019-05-09T16:05:42.161Z,1064
2019-05-09T16:06:22.701Z,1048
2019-05-09T16:07:09.318Z,1040
2019-05-09T16:07:49.617Z,1028
2019-05-09T16:11:18.197Z,1192
2019-05-09T16:12:07.734Z,1264
2019-05-09T16:12:48.616Z,1408
2019-05-09T16:13:28.743Z,1440
2019-05-09T16:14:09.016Z,1436
2019-05-09T16:14:50.253Z,1408
2019-05-09T16:15:34.530Z,1372
2019-05-09T16:18:58.340Z,1656
2019-05-09T16:19:38.318Z,1764
2019-05-09T16:20:35.037Z,1716
2019-05-09T16:20:59.199Z,1652
2019-05-09T16:21:42.601Z,1572
2019-05-09T16:24:57.325Z,1368
2019-05-09T16:25:39.271Z,1468
2019-05-09T16:26:21.726Z,1340
2019-05-09T16:27:04.066Z,1284
2019-05-09T16:27:48.416Z,1200
2019-05-09T16:28:28.994Z,1108
2019-05-09T16:29:09.056Z,1072
2019-05-09T16:29:49.721Z,1036
2019-05-09T17:19:23.272Z,704
2019-05-09T17:20:06.493Z,740
2019-05-09T17:36:22.939Z,496
2019-05-09T17:37:03.779Z,480
2019-05-09T17:37:44.249Z,464
2019-05-09T17:38:27.799Z,456
2019-05-09T17:39:07.913Z,444
2019-05-09T17:42:29.608Z,384
2019-05-09T17:43:08.228Z,368
2019-05-09T17:43:48.027Z,336
2019-05-09T17:44:30.184Z,312
2019-05-09T17:45:53.748Z,264
2019-05-09T17:46:34.193Z,244
2019-05-09T17:47:14.479Z,224
2019-05-09T17:47:54.885Z,212
2019-05-09T18:02:05.767Z,28
2019-05-09T18:02:45.895Z,20
2019-05-09T18:03:28.756Z,20
2019-05-09T18:04:09.088Z,16
2019-05-09T18:04:47.938Z,12
2019-05-09T18:06:08.337Z,8
2019-05-09T18:06:50.033Z,8
2019-05-09T18:13:34.339Z,12
2019-05-09T18:14:14.816Z,12
2019-05-09T18:14:57.634Z,12
2019-05-09T18:15:38.124Z,12
2019-05-09T18:16:18.907Z,8
2019-05-09T18:16:59.106Z,8
2019-05-09T18:17:40.428Z,8
2019-05-09T18:21:04.458Z,4
2019-05-09T18:21:50.884Z,8
2019-05-09T18:22:27.591Z,8
2019-05-09T18:23:08.371Z,8
2019-05-09T18:23:49.265Z,8
2019-05-09T18:24:29.601Z,8
2019-05-09T18:31:15.449Z,12
2019-05-09T18:31:58.133Z,12
2019-05-09T18:32:38.112Z,12
2019-05-09T18:33:16.555Z,16
2019-05-09T18:33:58.721Z,16
2019-05-09T18:34:39.133Z,16
2019-05-09T18:35:19.511Z,16
2019-05-09T18:43:24.574Z,28
2019-05-09T18:44:07.241Z,32
2019-05-09T18:44:47.490Z,32
2019-05-09T18:45:27.968Z,28
2019-05-09T18:46:08.338Z,28
2019-05-09T18:46:48.072Z,28
2019-05-09T18:47:27.908Z,28
2019-05-09T18:48:08.382Z,28
2019-05-09T18:48:47.974Z,32
2019-05-09T18:49:28.401Z,36
2019-05-09T18:50:08.739Z,36
2019-05-09T18:50:49.155Z,36
2019-05-09T18:59:34.466Z,28
2019-05-09T19:00:14.842Z,28
2019-05-09T19:00:55.231Z,24
2019-05-09T19:01:35.689Z,24
2019-05-09T19:02:16.008Z,24
2019-05-09T19:02:56.435Z,20
2019-05-09T19:03:36.797Z,20
2019-05-09T19:04:17.176Z,16
2019-05-09T19:04:57.583Z,16
2019-05-09T19:05:38.015Z,12
2019-05-09T19:06:18.479Z,12
2019-05-09T19:06:58.751Z,12
2019-05-09T19:07:39.203Z,12
2019-05-09T19:08:19.556Z,12
2019-05-09T19:15:44.533Z,8
2019-05-09T19:16:24.994Z,8
2019-05-09T19:17:05.354Z,4
2019-05-09T19:17:45.992Z,8
2019-05-09T19:18:26.430Z,4
2019-05-09T19:19:06.880Z,4
2019-05-09T19:19:47.809Z,4
2019-05-09T19:20:28.340Z,4
2019-05-09T19:21:10.143Z,4
2019-05-09T19:23:15.064Z,4
2019-05-09T19:23:57.379Z,4
2019-05-09T19:24:41.214Z,0
2019-05-09T19:26:06.436Z,4
2019-05-09T19:26:47.306Z,4
2019-05-09T19:28:10.891Z,4
2019-05-09T19:28:53.154Z,0
2019-05-09T19:29:38.223Z,0
2019-05-09T19:30:19.098Z,0
2019-05-09T19:31:44.412Z,0
2019-05-09T19:32:25.437Z,0
2019-05-09T19:33:06.145Z,0
2019-05-09T19:33:47.017Z,0
2019-05-09T19:34:29.294Z,0
2019-05-09T19:35:56.845Z,0
2019-05-09T19:36:39.473Z,0
2019-05-09T19:38:47.327Z,0
2019-05-09T19:39:34.359Z,0
2019-05-09T19:40:19.872Z,0
2019-05-09T19:40:56.022Z,0
2019-05-09T19:41:36.422Z,0
2019-05-09T19:42:16.700Z,0
2019-05-09T19:42:57.093Z,0
2019-05-09T19:43:37.540Z,0
2019-05-09T19:44:17.886Z,0
2019-05-09T19:44:58.430Z,0
2019-05-09T19:45:38.690Z,0
2019-05-09T19:46:19.102Z,0
2019-05-09T19:47:01.594Z,0
2019-05-09T19:54:24.387Z,0
2019-05-09T19:55:04.811Z,0
2019-05-09T19:55:45.184Z,0
2019-05-09T19:56:25.498Z,0